Time;durP1;ratioP1;P1;durP2;ratioP2;P2;SDS_P1;SDS_P2;PMS_P1;PMS_P2;Temp;Humidity;BMP_temperature;BMP_pressure;BME280_temperature;BME280_humidity;BME280_pressure;Samples;Min_cycle;Max_cycle;Signal;HPM_P1;HPM_P2
2023/07/29 00:00:12;;;;;;;4.32;3.33;;;21.30;99.90;;;;;;5061388;28;20021;-50
2023/07/29 00:02:58;;;;;;;3.55;2.92;;;21.40;99.90;;;;;;5059631;28;20033;-52
2023/07/29 00:05:44;;;;;;;3.42;3.13;;;21.30;99.90;;;;;;5061403;28;20037;-49
2023/07/29 00:08:30;;;;;;;3.22;2.92;;;21.30;99.90;;;;;;5060597;28;20515;-49
2023/07/29 00:11:16;;;;;;;3.92;2.80;;;21.40;99.90;;;;;;5060774;28;20029;-54
2023/07/29 00:14:02;;;;;;;3.10;2.80;;;21.40;99.90;;;;;;5058651;28;20105;-50
2023/07/29 00:16:48;;;;;;;3.63;2.83;;;21.30;99.90;;;;;;5059761;28;20033;-52
2023/07/29 00:19:34;;;;;;;3.38;2.80;;;21.30;99.90;;;;;;5060916;28;20102;-49
2023/07/29 00:22:20;;;;;;;2.90;2.70;;;21.30;99.90;;;;;;5058481;28;20394;-49
2023/07/29 00:25:06;;;;;;;3.28;2.97;;;21.30;99.90;;;;;;5058786;28;20032;-50
2023/07/29 00:27:54;;;;;;;3.17;2.80;;;21.40;99.90;;;;;;5066319;28;20029;-52
2023/07/29 00:30:40;;;;;;;4.20;2.63;;;21.30;99.90;;;;;;5073798;28;20040;-52
2023/07/29 00:33:26;;;;;;;2.67;2.47;;;21.40;99.90;;;;;;5074359;28;20428;-52
2023/07/29 00:36:11;;;;;;;3.00;2.70;;;21.40;99.90;;;;;;5072548;28;20068;-47
2023/07/29 00:38:57;;;;;;;3.08;2.80;;;21.40;99.90;;;;;;5053891;28;20032;-52
2023/07/29 00:41:43;;;;;;;3.00;2.60;;;21.40;99.90;;;;;;5054939;28;20025;-51
2023/07/29 00:44:31;;;;;;;3.03;2.67;;;21.40;99.90;;;;;;5063213;28;20025;-51
2023/07/29 00:47:18;;;;;;;2.88;2.67;;;21.30;99.90;;;;;;5067203;28;20074;-55
2023/07/29 00:50:06;;;;;;;3.65;2.70;;;21.30;99.90;;;;;;5050121;28;20501;-51
2023/07/29 00:52:52;;;;;;;3.47;2.58;;;21.30;99.90;;;;;;5063073;28;20034;-52
2023/07/29 00:55:38;;;;;;;4.70;2.60;;;21.30;99.90;;;;;;5060734;28;20052;-49
2023/07/29 00:58:24;;;;;;;2.72;2.53;;;21.30;99.90;;;;;;5053520;28;20416;-50
2023/07/29 01:01:10;;;;;;;3.75;2.72;;;21.30;99.90;;;;;;5039882;28;20029;-47
2023/07/29 01:03:56;;;;;;;3.75;2.70;;;21.20;99.90;;;;;;5053885;28;20029;-51
2023/07/29 01:07:40;;;;;;;3.10;2.78;;;21.10;99.90;;;;;;5038621;28;20080;-50
2023/07/29 01:10:43;;;;;;;3.38;2.95;;;21.10;99.90;;;;;;5036677;28;20127;-47
2023/07/29 01:13:52;;;;;;;3.08;2.78;;;21.10;99.90;;;;;;5071629;28;20029;-53
2023/07/29 01:16:45;;;;;;;3.92;2.90;;;21.00;99.90;;;;;;5058479;28;20048;-47
2023/07/29 01:19:52;;;;;;;3.35;2.97;;;20.90;99.90;;;;;;5053272;28;20098;-48
2023/07/29 01:22:39;;;;;;;4.65;3.03;;;20.90;99.90;;;;;;5053670;28;20397;-49
2023/07/29 01:25:25;;;;;;;3.92;2.72;;;20.80;99.90;;;;;;5053098;28;20025;-49
2023/07/29 01:28:11;;;;;;;4.00;2.85;;;20.80;99.90;;;;;;5053152;28;20111;-47
2023/07/29 01:31:01;;;;;;;3.50;3.20;;;20.80;99.90;;;;;;5053627;28;20029;-50
2023/07/29 01:34:14;;;;;;;3.20;2.90;;;20.70;99.90;;;;;;5053505;28;20033;-46
2023/07/29 01:37:02;;;;;;;3.72;2.70;;;20.80;99.90;;;;;;5053350;28;20382;-49
2023/07/29 01:39:50;;;;;;;4.07;3.00;;;20.80;99.90;;;;;;5053831;28;20017;-48
2023/07/29 01:42:37;;;;;;;3.30;3.00;;;20.70;99.90;;;;;;5053280;28;20029;-52
2023/07/29 01:45:25;;;;;;;3.30;3.00;;;20.70;99.90;;;;;;5056632;28;20039;-51
2023/07/29 01:48:11;;;;;;;3.60;3.28;;;20.70;99.90;;;;;;5072569;28;20048;-48
2023/07/29 01:50:57;;;;;;;3.53;3.15;;;20.70;99.90;;;;;;5063295;28;20072;-49
2023/07/29 01:53:43;;;;;;;4.25;3.85;;;20.60;99.90;;;;;;5053067;28;20452;-48
2023/07/29 01:56:29;;;;;;;3.33;2.95;;;20.60;99.90;;;;;;5052775;28;20555;-47
2023/07/29 01:59:16;;;;;;;3.08;2.78;;;20.70;99.90;;;;;;5052856;28;20029;-48
2023/07/29 02:02:02;;;;;;;4.57;2.95;;;20.80;99.90;;;;;;5053386;28;20047;-51
2023/07/29 02:04:51;;;;;;;4.18;3.22;;;20.80;99.90;;;;;;5053867;28;20068;-46
2023/07/29 02:07:37;;;;;;;4.13;3.10;;;20.80;99.90;;;;;;5052381;28;20112;-50
2023/07/29 02:10:23;;;;;;;4.25;3.70;;;20.70;99.90;;;;;;5058633;28;20452;-47
2023/07/29 02:13:09;;;;;;;3.83;3.42;;;20.80;99.90;;;;;;5040911;28;20029;-52
2023/07/29 02:15:55;;;;;;;4.20;3.15;;;20.70;99.90;;;;;;5051918;28;20033;-52
2023/07/29 02:18:41;;;;;;;3.33;2.85;;;20.70;99.90;;;;;;5051788;28;20028;-51
2023/07/29 02:21:27;;;;;;;3.58;3.10;;;20.60;99.90;;;;;;5051839;28;20028;-49
2023/07/29 02:24:12;;;;;;;3.75;3.10;;;20.50;99.90;;;;;;5052346;28;20025;-52
2023/07/29 02:26:58;;;;;;;4.20;3.00;;;20.50;99.90;;;;;;5051478;28;20055;-43
2023/07/29 02:29:44;;;;;;;3.63;3.03;;;20.40;99.90;;;;;;5052211;28;20095;-46
2023/07/29 02:32:30;;;;;;;5.28;3.15;;;20.30;99.90;;;;;;5052494;28;20025;-45
2023/07/29 02:35:16;;;;;;;3.53;3.20;;;20.30;99.90;;;;;;5052395;28;20037;-51
2023/07/29 02:38:03;;;;;;;3.53;3.00;;;20.30;99.90;;;;;;5051595;28;20065;-50
2023/07/29 02:40:49;;;;;;;3.50;3.20;;;20.30;99.90;;;;;;5037945;28;20033;-50
2023/07/29 02:43:39;;;;;;;6.28;3.50;;;20.30;99.90;;;;;;5033384;28;20067;-45
2023/07/29 02:46:24;;;;;;;3.50;3.20;;;20.30;99.90;;;;;;5055075;28;20061;-49
2023/07/29 02:49:10;;;;;;;3.55;3.03;;;20.20;99.90;;;;;;5051476;28;20481;-47
2023/07/29 02:51:56;;;;;;;3.95;3.40;;;20.10;99.90;;;;;;5051952;28;20461;-46
2023/07/29 02:54:42;;;;;;;3.33;2.92;;;20.10;99.90;;;;;;5037849;28;20032;-45
2023/07/29 02:57:28;;;;;;;3.50;3.20;;;20.10;99.90;;;;;;5071625;28;20089;-47
2023/07/29 03:00:15;;;;;;;3.40;3.10;;;20.10;99.90;;;;;;5071305;28;20079;-45
2023/07/29 03:03:01;;;;;;;3.80;3.08;;;20.00;99.90;;;;;;5072375;28;20056;-51
2023/07/29 03:05:46;;;;;;;3.40;3.10;;;20.10;99.90;;;;;;5071844;28;20116;-45
2023/07/29 03:08:33;;;;;;;3.60;3.30;;;20.00;99.90;;;;;;5052053;28;20073;-47
2023/07/29 03:11:19;;;;;;;3.60;3.17;;;20.10;99.90;;;;;;5038181;28;20501;-48
2023/07/29 03:14:05;;;;;;;3.30;3.00;;;20.10;99.90;;;;;;5050464;28;20033;-46
2023/07/29 03:16:50;;;;;;;3.42;3.10;;;20.10;99.90;;;;;;5050867;28;20055;-48
2023/07/29 03:19:36;;;;;;;3.30;3.00;;;20.10;99.90;;;;;;5052100;28;20032;-51
2023/07/29 03:22:22;;;;;;;5.75;3.30;;;20.00;99.90;;;;;;5051431;28;20514;-51
2023/07/29 03:25:08;;;;;;;3.85;3.38;;;20.00;99.90;;;;;;5050820;28;20374;-46
2023/07/29 03:27:55;;;;;;;3.40;3.10;;;20.00;99.90;;;;;;5052045;28;20024;-44
2023/07/29 03:30:40;;;;;;;8.05;3.38;;;19.90;99.90;;;;;;5071452;28;20041;-44
2023/07/29 03:33:26;;;;;;;3.35;3.05;;;19.90;99.90;;;;;;5071511;28;20131;-46
2023/07/29 03:36:12;;;;;;;5.55;3.30;;;19.90;99.90;;;;;;5071297;28;20024;-44
2023/07/29 03:39:00;;;;;;;3.55;3.00;;;19.90;99.90;;;;;;5056603;28;20032;-43
2023/07/29 03:41:46;;;;;;;4.03;3.33;;;19.80;99.90;;;;;;5070576;28;20021;-44
2023/07/29 03:44:32;;;;;;;3.92;3.40;;;19.80;99.90;;;;;;5054118;28;20044;-46
2023/07/29 03:47:18;;;;;;;3.63;3.00;;;19.70;99.90;;;;;;5071143;28;20582;-46
2023/07/29 03:50:04;;;;;;;4.38;3.22;;;19.70;99.90;;;;;;5071648;28;20036;-47
2023/07/29 03:52:50;;;;;;;3.63;3.30;;;19.80;99.90;;;;;;5070736;28;20025;-48
2023/07/29 03:55:36;;;;;;;3.88;3.47;;;19.80;99.90;;;;;;5071211;28;20036;-49
2023/07/29 03:58:22;;;;;;;3.78;3.30;;;19.90;99.90;;;;;;5070893;28;20086;-46
2023/07/29 04:01:08;;;;;;;3.90;3.20;;;19.90;99.90;;;;;;5071168;28;20106;-45
2023/07/29 04:03:54;;;;;;;5.57;3.30;;;19.90;99.90;;;;;;5073896;28;20033;-47
2023/07/29 04:06:43;;;;;;;4.00;3.25;;;20.10;99.90;;;;;;5066985;28;20059;-45
2023/07/29 04:09:29;;;;;;;5.68;3.42;;;20.20;99.90;;;;;;5054997;28;20069;-45
2023/07/29 04:12:15;;;;;;;4.40;3.55;;;20.30;99.90;;;;;;5055012;28;20040;-49
2023/07/29 04:15:01;;;;;;;4.10;3.10;;;20.40;99.90;;;;;;5054948;28;20032;-52
2023/07/29 04:17:47;;;;;;;4.32;3.55;;;20.40;99.90;;;;;;5054204;28;20041;-52
2023/07/29 04:20:33;;;;;;;4.53;3.40;;;20.50;99.90;;;;;;5054403;28;20029;-47
2023/07/29 04:23:19;;;;;;;3.47;3.17;;;20.50;99.90;;;;;;5055359;28;20041;-45
2023/07/29 04:26:05;;;;;;;4.07;3.10;;;20.60;99.90;;;;;;5054496;28;20068;-44
2023/07/29 04:28:51;;;;;;;4.55;3.22;;;20.60;99.90;;;;;;5054910;28;20029;-46
2023/07/29 04:31:37;;;;;;;3.53;3.22;;;20.60;99.90;;;;;;5056053;28;20060;-46
2023/07/29 04:34:23;;;;;;;3.42;3.13;;;20.60;99.90;;;;;;5056053;28;20033;-47
2023/07/29 04:37:09;;;;;;;3.50;3.20;;;20.60;99.90;;;;;;5053448;28;20036;-48
2023/07/29 04:39:55;;;;;;;3.55;3.22;;;20.60;99.90;;;;;;5054427;28;20508;-49
2023/07/29 04:42:41;;;;;;;3.72;3.30;;;20.50;99.90;;;;;;5053645;28;20029;-50
2023/07/29 04:45:30;;;;;;;3.50;3.20;;;20.60;99.90;;;;;;5054486;28;20040;-51
2023/07/29 04:48:16;;;;;;;3.42;3.13;;;20.60;99.90;;;;;;5053146;28;20033;-46
2023/07/29 04:51:02;;;;;;;4.65;3.38;;;20.70;99.90;;;;;;5054887;28;20044;-50
2023/07/29 04:53:48;;;;;;;4.00;3.45;;;20.60;99.90;;;;;;5054456;28;20498;-46
2023/07/29 04:56:34;;;;;;;4.05;3.58;;;20.60;99.90;;;;;;5054141;28;20452;-48
2023/07/29 04:59:20;;;;;;;3.67;3.38;;;20.70;99.90;;;;;;5039599;28;20490;-45
2023/07/29 05:02:06;;;;;;;4.15;3.40;;;20.70;99.90;;;;;;5053306;28;20061;-45
2023/07/29 05:04:52;;;;;;;3.85;3.25;;;20.80;99.90;;;;;;5053862;28;20501;-47
2023/07/29 05:07:38;;;;;;;4.78;3.17;;;20.70;99.90;;;;;;5053746;28;20071;-46
2023/07/29 05:10:24;;;;;;;4.82;3.75;;;20.70;99.90;;;;;;5053820;28;20025;-53
2023/07/29 05:13:10;;;;;;;4.07;3.67;;;20.70;99.90;;;;;;5052187;28;20025;-48
2023/07/29 05:15:56;;;;;;;3.97;3.60;;;20.70;99.90;;;;;;5053109;28;20037;-48
2023/07/29 05:18:42;;;;;;;3.90;3.60;;;20.80;99.90;;;;;;5073579;28;20035;-50
2023/07/29 05:21:28;;;;;;;4.30;3.90;;;20.80;99.90;;;;;;5071527;28;20040;-49
2023/07/29 05:24:14;;;;;;;5.32;3.20;;;20.70;99.90;;;;;;5073682;28;20064;-46
2023/07/29 05:27:00;;;;;;;4.00;3.70;;;20.70;99.90;;;;;;5073398;28;20029;-45
2023/07/29 05:29:45;;;;;;;3.80;3.50;;;20.70;99.90;;;;;;5073503;28;20036;-45
2023/07/29 05:32:31;;;;;;;3.70;3.40;;;20.80;99.90;;;;;;5073176;28;20047;-47
2023/07/29 05:35:17;;;;;;;5.50;3.58;;;20.90;99.90;;;;;;5073425;28;20036;-47
2023/07/29 05:38:06;;;;;;;3.67;3.30;;;20.90;99.90;;;;;;5073484;28;20032;-45
2023/07/29 05:40:51;;;;;;;4.10;3.70;;;21.00;99.90;;;;;;5073378;28;20074;-45
2023/07/29 05:43:37;;;;;;;3.35;3.05;;;21.00;99.90;;;;;;5057498;28;20047;-45
2023/07/29 05:46:23;;;;;;;4.72;3.33;;;21.10;99.90;;;;;;5053635;28;20051;-44
2023/07/29 05:49:09;;;;;;;3.50;3.20;;;21.30;99.90;;;;;;5052663;28;20043;-44
2023/07/29 05:51:56;;;;;;;3.80;3.33;;;21.30;99.90;;;;;;5068334;28;20069;-45
2023/07/29 05:54:42;;;;;;;3.70;3.35;;;21.30;99.90;;;;;;5056260;28;20032;-45
2023/07/29 05:57:28;;;;;;;3.65;2.95;;;21.40;99.90;;;;;;5069597;28;20595;-45
2023/07/29 06:00:14;;;;;;;3.50;3.20;;;21.50;99.90;;;;;;5056057;28;20173;-50
2023/07/29 06:03:00;;;;;;;5.05;3.25;;;21.60;99.90;;;;;;5051877;28;20052;-49
2023/07/29 06:05:46;;;;;;;5.55;4.97;;;21.70;99.90;;;;;;5053259;28;20029;-46
2023/07/29 06:08:34;;;;;;;4.78;4.30;;;21.70;99.90;;;;;;5052328;28;20091;-48
2023/07/29 06:11:20;;;;;;;3.88;3.47;;;21.80;99.90;;;;;;5073541;28;20048;-49
2023/07/29 06:14:06;;;;;;;3.58;3.20;;;22.00;99.90;;;;;;5072773;28;20109;-50
2023/07/29 06:16:52;;;;;;;3.35;2.97;;;22.00;99.90;;;;;;5072390;28;20511;-49
2023/07/29 06:19:38;;;;;;;4.95;3.30;;;22.00;99.90;;;;;;5072807;28;20119;-52
2023/07/29 06:22:24;;;;;;;8.00;3.45;;;22.10;99.90;;;;;;5073012;28;20517;-53
2023/07/29 06:25:12;;;;;;;3.65;3.00;;;22.10;99.90;;;;;;5069009;28;20067;-48
2023/07/29 06:27:58;;;;;;;3.63;3.33;;;22.10;99.90;;;;;;5073225;28;20025;-49
2023/07/29 06:30:44;;;;;;;4.43;3.15;;;22.20;99.90;;;;;;5051257;28;20167;-49
2023/07/29 06:33:30;;;;;;;3.45;2.97;;;22.20;99.90;;;;;;5052450;28;20029;-52
2023/07/29 06:36:16;;;;;;;3.90;3.30;;;22.30;99.90;;;;;;5063513;28;20041;-50
2023/07/29 06:39:02;;;;;;;3.60;3.20;;;22.40;99.90;;;;;;5072048;28;20032;-49
2023/07/29 06:41:48;;;;;;;5.20;3.30;;;22.50;99.90;;;;;;5072062;28;20025;-50
2023/07/29 06:44:34;;;;;;;3.35;3.05;;;22.60;99.90;;;;;;5072045;28;20039;-49
2023/07/29 06:47:20;;;;;;;3.80;3.30;;;22.70;99.90;;;;;;5071863;28;20451;-49
2023/07/29 06:50:06;;;;;;;4.30;3.08;;;22.70;99.90;;;;;;5072535;28;20524;-51
2023/07/29 06:52:52;;;;;;;4.00;3.20;;;22.50;99.90;;;;;;5072166;28;20170;-52
2023/07/29 06:55:39;;;;;;;4.18;3.30;;;22.30;99.90;;;;;;5071818;28;20047;-49
2023/07/29 06:58:25;;;;;;;3.65;2.83;;;22.40;99.90;;;;;;5071058;28;20036;-49
2023/07/29 07:01:11;;;;;;;3.83;3.42;;;22.40;99.90;;;;;;5068995;28;20082;-51
2023/07/29 07:03:58;;;;;;;4.07;3.10;;;22.40;99.90;;;;;;5070708;28;20021;-48
2023/07/29 07:06:44;;;;;;;3.35;3.00;;;22.30;99.90;;;;;;5071043;28;20044;-47
2023/07/29 07:09:30;;;;;;;4.38;3.30;;;22.10;99.90;;;;;;5072319;28;20027;-49
2023/07/29 07:12:16;;;;;;;3.65;3.28;;;22.10;99.90;;;;;;5071593;28;20059;-51
2023/07/29 07:15:02;;;;;;;3.53;3.10;;;22.00;99.90;;;;;;5068560;28;20021;-48
2023/07/29 07:17:48;;;;;;;3.78;3.35;;;22.00;99.90;;;;;;5072334;28;20029;-48
2023/07/29 07:20:34;;;;;;;3.65;3.35;;;22.00;99.90;;;;;;5072662;28;20035;-52
2023/07/29 07:23:20;;;;;;;3.80;3.42;;;22.10;99.90;;;;;;5057425;28;20058;-44
2023/07/29 07:26:06;;;;;;;4.32;3.40;;;22.10;99.90;;;;;;5070751;28;20036;-48
2023/07/29 07:28:52;;;;;;;4.03;3.50;;;22.10;99.90;;;;;;5071648;28;20044;-53
2023/07/29 07:31:38;;;;;;;3.65;3.35;;;22.10;99.90;;;;;;5071227;28;20043;-50
2023/07/29 07:34:24;;;;;;;4.00;3.13;;;22.10;99.90;;;;;;5071187;28;20544;-52
2023/07/29 07:37:10;;;;;;;4.28;3.13;;;22.00;99.90;;;;;;5069093;28;20024;-51
2023/07/29 07:39:56;;;;;;;3.70;3.40;;;22.10;99.90;;;;;;5057019;28;20144;-54
2023/07/29 07:42:42;;;;;;;3.33;3.03;;;22.10;99.90;;;;;;5057575;28;20093;-54
2023/07/29 07:45:28;;;;;;;3.80;3.50;;;22.20;99.90;;;;;;5057546;28;20029;-45
2023/07/29 07:48:16;;;;;;;3.60;3.30;;;22.40;99.90;;;;;;5074229;28;20063;-52
2023/07/29 07:51:11;;;;;;;4.80;3.35;;;22.50;99.90;;;;;;5077969;28;20062;-55
2023/07/29 07:53:57;;;;;;;;;;;22.70;99.90;;;;;;5058259;28;20037;-49
2023/07/29 07:56:43;;;;;;;3.80;3.40;;;22.80;99.90;;;;;;5057196;28;19920;-53
2023/07/29 07:59:29;;;;;;;5.03;3.17;;;22.80;99.90;;;;;;5070334;28;20524;-55
2023/07/29 08:02:15;;;;;;;4.00;3.58;;;22.90;99.90;;;;;;5062608;28;20036;-53
2023/07/29 08:05:01;;;;;;;4.95;3.47;;;23.00;99.90;;;;;;5058914;28;20040;-52
2023/07/29 08:07:47;;;;;;;3.45;3.15;;;23.20;99.90;;;;;;5067919;28;20025;-53
2023/07/29 08:10:33;;;;;;;4.05;3.30;;;23.20;99.90;;;;;;5074847;28;20028;-52
2023/07/29 08:13:19;;;;;;;4.90;3.50;;;23.00;99.90;;;;;;5074835;28;20435;-55
2023/07/29 08:16:05;;;;;;;3.78;3.47;;;23.00;99.90;;;;;;5075071;28;20055;-50
2023/07/29 08:18:51;;;;;;;3.60;3.20;;;23.10;99.90;;;;;;5076905;28;20112;-54
2023/07/29 08:21:37;;;;;;;4.28;3.45;;;23.20;99.90;;;;;;5077637;28;20032;-55
2023/07/29 08:24:23;;;;;;;3.53;3.22;;;23.40;99.90;;;;;;5062024;28;20142;-53
2023/07/29 08:27:09;;;;;;;3.22;2.92;;;23.40;99.90;;;;;;5077340;28;20082;-53
2023/07/29 08:29:55;;;;;;;3.50;3.20;;;23.50;99.90;;;;;;5075942;28;20123;-54
2023/07/29 08:32:41;;;;;;;2.90;2.70;;;23.40;99.90;;;;;;5068895;28;20115;-52
2023/07/29 08:35:27;;;;;;;3.80;3.33;;;23.30;99.90;;;;;;5072618;28;20159;-56
2023/07/29 08:38:13;;;;;;;3.28;2.97;;;23.40;99.90;;;;;;5065286;28;20029;-54
2023/07/29 08:41:11;;;;;;;3.75;3.45;;;23.40;99.90;;;;;;5074578;28;20032;-54
2023/07/29 08:44:09;;;;;;;4.05;2.88;;;23.50;99.90;;;;;;5073231;28;20031;-52
2023/07/29 08:46:57;;;;;;;3.33;3.03;;;23.60;99.90;;;;;;5061620;28;20045;-50
2023/07/29 08:49:44;;;;;;;5.18;2.70;;;23.80;99.90;;;;;;5053676;28;20151;-54
2023/07/29 08:52:32;;;;;;;3.22;2.92;;;23.90;99.90;;;;;;5054559;28;20040;-53
2023/07/29 08:55:19;;;;;;;3.60;2.72;;;23.90;99.90;;;;;;5039926;28;20583;-55
2023/07/29 08:58:05;;;;;;;3.67;2.67;;;23.80;99.90;;;;;;5039772;28;20047;-54
2023/07/29 09:00:51;;;;;;;2.92;2.63;;;23.50;99.90;;;;;;5054021;28;20457;-48
2023/07/29 09:03:37;;;;;;;4.07;2.60;;;23.50;99.90;;;;;;5064464;28;20444;-49
2023/07/29 09:06:25;;;;;;;4.18;2.42;;;23.50;99.90;;;;;;5065311;28;20048;-49
2023/07/29 09:09:12;;;;;;;2.60;2.40;;;23.60;99.90;;;;;;5061746;28;20039;-52
2023/07/29 09:11:58;;;;;;;3.05;2.58;;;23.60;99.90;;;;;;5059182;28;20049;-50
2023/07/29 09:14:44;;;;;;;3.00;2.70;;;23.90;99.90;;;;;;5069052;28;20033;-51
2023/07/29 09:17:33;;;;;;;3.20;2.80;;;24.10;99.90;;;;;;5072872;28;20056;-51
2023/07/29 09:20:27;;;;;;;3.10;2.45;;;24.10;99.90;;;;;;5072581;28;20054;-45
2023/07/29 09:23:13;;;;;;;3.28;2.25;;;24.20;99.90;;;;;;5072656;28;20020;-49
2023/07/29 09:26:02;;;;;;;3.22;2.28;;;24.30;99.90;;;;;;5064118;28;20033;-54
2023/07/29 09:28:55;;;;;;;2.30;2.10;;;24.40;99.90;;;;;;5064804;28;20069;-50
2023/07/29 09:31:41;;;;;;;2.45;2.25;;;24.30;99.90;;;;;;5066013;28;20071;-53
2023/07/29 09:34:27;;;;;;;2.63;2.40;;;24.30;99.90;;;;;;5072714;28;20028;-51
2023/07/29 09:37:23;;;;;;;2.88;2.58;;;24.20;99.90;;;;;;5070335;28;20068;-52
2023/07/29 09:40:15;;;;;;;2.60;2.40;;;24.10;99.90;;;;;;5073231;28;20023;-49
2023/07/29 09:43:01;;;;;;;4.82;2.42;;;24.30;99.90;;;;;;5072079;28;20485;-44
2023/07/29 09:45:47;;;;;;;3.13;2.38;;;24.40;99.90;;;;;;5073321;28;20060;-55
2023/07/29 09:48:34;;;;;;;2.72;2.30;;;24.50;99.90;;;;;;5072886;28;20462;-55
2023/07/29 09:51:20;;;;;;;4.75;2.60;;;24.50;99.90;;;;;;5065685;28;20134;-56
2023/07/29 09:54:07;;;;;;;2.90;2.60;;;24.50;99.90;;;;;;5071803;28;20035;-53
2023/07/29 09:56:53;;;;;;;3.05;2.50;;;24.40;99.90;;;;;;5072033;28;20020;-51
2023/07/29 09:59:39;;;;;;;2.80;2.60;;;24.30;99.70;;;;;;5070918;28;20021;-52
2023/07/29 10:02:28;;;;;;;3.08;2.58;;;24.20;99.70;;;;;;5071250;28;20017;-56
2023/07/29 10:05:15;;;;;;;4.38;3.03;;;24.40;99.50;;;;;;5072410;28;20035;-55
2023/07/29 10:08:02;;;;;;;4.05;2.95;;;24.60;99.30;;;;;;5072454;28;20120;-53
2023/07/29 10:10:50;;;;;;;3.10;2.60;;;24.60;99.30;;;;;;5071954;28;20594;-54
2023/07/29 10:13:37;;;;;;;3.85;2.78;;;24.60;99.50;;;;;;5072826;28;20072;-56
2023/07/29 10:16:24;;;;;;;5.82;2.78;;;24.60;99.70;;;;;;5065706;28;20429;-51
2023/07/29 10:19:10;;;;;;;3.97;2.60;;;24.60;99.60;;;;;;5069861;28;20037;-47
2023/07/29 10:21:58;;;;;;;5.05;3.15;;;24.50;99.50;;;;;;5071085;28;20096;-54
2023/07/29 10:24:46;;;;;;;2.90;2.60;;;24.50;99.70;;;;;;5068806;28;20106;-52
2023/07/29 10:27:43;;;;;;;3.63;2.83;;;24.60;99.50;;;;;;5069335;28;20051;-47
2023/07/29 10:30:30;;;;;;;2.97;2.67;;;24.70;98.90;;;;;;5070474;28;20036;-48
2023/07/29 10:33:16;;;;;;;4.35;2.90;;;24.80;98.90;;;;;;5068472;28;20396;-48
2023/07/29 10:42:20;;;;;;;3.53;2.80;;;24.70;98.90;;;;;;5649825;22;20052;-50
2023/07/29 10:45:22;;;;;;;6.03;3.08;;;24.90;98.50;;;;;;5039322;28;20033;-52
2023/07/29 10:48:12;;;;;;;5.85;2.80;;;25.10;97.60;;;;;;5022619;28;20084;-49
2023/07/29 10:51:34;;;;;;;3.00;2.70;;;25.10;97.60;;;;;;5018854;28;20049;-61
2023/07/29 10:54:20;;;;;;;3.08;2.78;;;25.20;97.70;;;;;;5017749;28;20053;-51
2023/07/29 10:57:06;;;;;;;3.63;2.92;;;25.30;97.50;;;;;;5016206;28;20022;-54
2023/07/29 10:59:56;;;;;;;3.42;2.97;;;25.20;97.90;;;;;;5017530;28;20026;-52
2023/07/29 11:02:43;;;;;;;3.55;2.58;;;25.10;97.80;;;;;;4992094;28;20040;-57
2023/07/29 11:05:43;;;;;;;3.05;2.80;;;25.00;97.90;;;;;;5018624;28;20034;-68
2023/07/29 11:08:30;;;;;;;3.03;2.65;;;24.70;98.00;;;;;;5017656;28;20516;-55
2023/07/29 11:11:16;;;;;;;3.17;2.88;;;24.60;98.50;;;;;;5014565;28;20037;-48
2023/07/29 11:14:02;;;;;;;3.90;3.30;;;24.30;98.70;;;;;;5017173;28;20105;-49
2023/07/29 11:16:49;;;;;;;4.05;3.00;;;24.40;99.00;;;;;;5013660;28;20034;-52
2023/07/29 11:19:37;;;;;;;3.40;3.10;;;24.60;98.40;;;;;;5016991;28;20129;-52
2023/07/29 11:22:25;;;;;;;3.45;3.10;;;24.70;98.50;;;;;;5013519;28;20117;-51
2023/07/29 11:25:14;;;;;;;3.67;3.10;;;24.70;98.40;;;;;;5024183;28;20025;-56
2023/07/29 11:28:00;;;;;;;3.33;3.03;;;24.80;98.60;;;;;;5019163;28;20033;-57
2023/07/29 11:30:46;;;;;;;3.42;3.08;;;24.90;98.40;;;;;;5015109;28;20188;-58
2023/07/29 11:33:32;;;;;;;3.42;3.13;;;25.10;97.90;;;;;;5009665;28;20041;-55
2023/07/29 11:36:19;;;;;;;3.90;3.10;;;25.00;97.50;;;;;;5010705;28;20065;-58
2023/07/29 11:39:11;;;;;;;3.72;3.20;;;25.00;97.90;;;;;;5010737;28;20076;-57
2023/07/29 11:41:57;;;;;;;3.28;2.97;;;24.80;98.30;;;;;;5010624;28;20038;-55
2023/07/29 11:44:43;;;;;;;3.15;2.85;;;24.80;98.60;;;;;;5010200;28;20383;-53
2023/07/29 11:47:29;;;;;;;3.20;2.90;;;24.80;98.10;;;;;;5010773;28;20038;-55
2023/07/29 11:50:15;;;;;;;4.70;3.35;;;24.50;98.70;;;;;;5010148;28;20383;-55
2023/07/29 11:53:02;;;;;;;3.70;3.40;;;24.40;99.00;;;;;;5010638;28;20053;-55
2023/07/29 11:55:54;;;;;;;3.42;3.13;;;24.40;99.00;;;;;;5011022;28;20030;-58
2023/07/29 11:58:41;;;;;;;3.78;3.45;;;24.40;99.30;;;;;;5010829;28;20088;-55
2023/07/29 12:01:28;;;;;;;3.63;3.33;;;24.30;99.40;;;;;;5010430;28;20486;-56
2023/07/29 12:04:15;;;;;;;3.38;3.08;;;24.30;99.70;;;;;;5010328;28;20116;-52
2023/07/29 12:07:01;;;;;;;3.40;3.10;;;24.30;99.50;;;;;;5011336;28;20024;-54
2023/07/29 12:09:49;;;;;;;3.90;3.40;;;24.30;99.90;;;;;;5009919;28;20030;-55
2023/07/29 12:12:45;;;;;;;3.42;3.08;;;24.30;99.90;;;;;;5010509;28;20022;-56
2023/07/29 12:15:31;;;;;;;3.95;3.15;;;24.20;99.80;;;;;;5010071;28;20033;-57
2023/07/29 12:18:16;;;;;;;4.18;3.15;;;24.20;99.30;;;;;;5009871;28;20165;-56
2023/07/29 12:21:03;;;;;;;3.72;3.10;;;24.30;99.70;;;;;;5010758;28;20044;-59
2023/07/29 12:23:51;;;;;;;3.30;3.00;;;24.30;99.40;;;;;;5012783;28;20059;-55
2023/07/29 12:26:37;;;;;;;5.07;3.10;;;24.70;99.00;;;;;;5013837;28;20045;-58
2023/07/29 12:29:23;;;;;;;4.15;3.13;;;24.90;98.40;;;;;;5013101;28;20026;-53
2023/07/29 12:32:09;;;;;;;4.03;2.85;;;24.90;98.70;;;;;;5013738;28;20028;-55
2023/07/29 12:34:55;;;;;;;3.05;2.75;;;25.00;98.10;;;;;;5013831;28;20409;-57
2023/07/29 12:37:42;;;;;;;4.35;2.97;;;25.20;97.80;;;;;;5013379;28;20049;-56
2023/07/29 12:40:29;;;;;;;3.70;2.75;;;25.60;96.90;;;;;;5013762;28;20399;-56
2023/07/29 12:43:15;;;;;;;12.27;3.50;;;25.80;96.90;;;;;;5013751;28;20034;-57
2023/07/29 12:46:00;;;;;;;4.00;3.00;;;25.70;96.70;;;;;;5013536;28;20414;-57
2023/07/29 12:48:46;;;;;;;3.30;3.00;;;25.60;96.50;;;;;;5014072;28;20045;-57
2023/07/29 12:51:32;;;;;;;3.53;3.15;;;25.50;96.80;;;;;;5012139;28;20045;-55
2023/07/29 12:54:18;;;;;;;4.85;3.22;;;25.80;96.60;;;;;;5013314;28;20105;-59
2023/07/29 12:57:07;;;;;;;4.00;3.60;;;26.10;96.30;;;;;;5013722;28;20026;-53
2023/07/29 12:59:53;;;;;;;3.42;2.90;;;26.30;95.60;;;;;;5013668;28;20348;-58
2023/07/29 13:02:39;;;;;;;5.35;3.05;;;26.40;95.10;;;;;;5013589;28;20076;-56
2023/07/29 13:05:25;;;;;;;3.30;2.80;;;26.70;94.60;;;;;;5013768;28;20109;-55
2023/07/29 13:08:11;;;;;;;4.57;3.30;;;26.90;94.20;;;;;;5013153;28;20034;-58
2023/07/29 13:10:57;;;;;;;4.47;3.05;;;27.20;93.80;;;;;;5013402;28;20087;-56
2023/07/29 13:13:45;;;;;;;3.10;2.83;;;27.00;93.30;;;;;;5013573;28;20510;-57
2023/07/29 13:16:31;;;;;;;5.40;2.88;;;26.70;93.70;;;;;;5013316;28;20442;-57
2023/07/29 13:19:18;;;;;;;3.33;3.03;;;26.50;93.50;;;;;;5013574;28;20056;-55
2023/07/29 13:22:04;;;;;;;4.22;3.38;;;26.40;93.80;;;;;;5013566;28;20030;-55
2023/07/29 13:24:50;;;;;;;4.18;3.28;;;26.60;93.50;;;;;;5012540;28;20076;-55
2023/07/29 13:27:36;;;;;;;3.40;3.10;;;26.90;93.40;;;;;;5013141;28;20038;-57
2023/07/29 13:30:22;;;;;;;4.07;3.60;;;27.30;93.00;;;;;;5013282;28;20033;-55
2023/07/29 13:33:08;;;;;;;6.80;4.40;;;27.40;92.80;;;;;;5012977;28;20026;-52
2023/07/29 13:35:54;;;;;;;3.88;3.10;;;27.70;92.30;;;;;;5013622;28;20053;-56
2023/07/29 13:38:41;;;;;;;4.53;2.97;;;27.80;91.20;;;;;;5012725;28;20032;-55
2023/07/29 13:41:27;;;;;;;4.18;3.00;;;27.50;91.60;;;;;;5012897;28;20030;-57
2023/07/29 13:44:13;;;;;;;3.92;3.42;;;27.20;92.00;;;;;;5012661;28;20034;-55
2023/07/29 13:46:59;;;;;;;4.63;3.45;;;27.00;92.30;;;;;;5011456;28;20037;-55
2023/07/29 13:49:45;;;;;;;3.58;2.95;;;26.80;92.50;;;;;;5012143;28;20029;-57
2023/07/29 13:52:31;;;;;;;3.78;3.22;;;26.70;92.20;;;;;;5012174;28;20029;-55
2023/07/29 13:55:17;;;;;;;3.30;2.88;;;26.50;92.20;;;;;;5012105;28;20053;-56
2023/07/29 13:58:02;;;;;;;3.47;3.17;;;26.30;92.40;;;;;;5011824;28;20022;-53
2023/07/29 14:00:48;;;;;;;5.15;3.42;;;26.20;92.70;;;;;;5012091;28;20025;-53
2023/07/29 14:03:34;;;;;;;6.35;3.50;;;26.10;92.80;;;;;;5012367;28;20053;-54
2023/07/29 14:06:20;;;;;;;3.63;3.33;;;26.00;93.00;;;;;;5012133;28;20088;-55
2023/07/29 14:09:06;;;;;;;3.97;3.58;;;25.90;93.10;;;;;;5012118;28;20034;-56
2023/07/29 14:11:54;;;;;;;5.18;3.25;;;25.60;94.30;;;;;;4996982;28;20042;-52
2023/07/29 14:14:40;;;;;;;3.92;3.53;;;25.40;94.80;;;;;;5013144;28;20030;-53
2023/07/29 14:17:26;;;;;;;5.70;3.38;;;25.20;95.40;;;;;;5012450;28;20124;-55
2023/07/29 14:20:13;;;;;;;5.15;3.42;;;25.20;94.80;;;;;;5011744;28;20391;-56
2023/07/29 14:22:59;;;;;;;13.27;5.78;;;25.20;94.70;;;;;;5012272;28;20026;-60
2023/07/29 14:25:45;;;;;;;7.75;4.70;;;24.20;99.90;;;;;;5012600;28;20041;-58
2023/07/29 14:28:31;;;;;;;7.90;4.68;;;22.60;99.90;;;;;;5012694;28;20030;-59
2023/07/29 14:31:17;;;;;;;10.85;5.43;;;22.00;99.90;;;;;;5012632;28;20529;-61
2023/07/29 14:34:03;;;;;;;7.65;4.80;;;21.60;99.90;;;;;;5012354;28;20111;-59
2023/07/29 14:36:52;;;;;;;8.90;4.93;;;20.70;99.90;;;;;;5011341;28;20033;-61